createdAt,value
2018-07-16T00:00:45.111Z,18.60
2018-07-16T00:03:14.265Z,18.60
2018-07-16T00:05:43.417Z,18.70
2018-07-16T00:08:12.546Z,18.70
2018-07-16T00:10:41.717Z,18.70
2018-07-16T00:13:10.905Z,18.70
2018-07-16T00:15:40.082Z,18.70
2018-07-16T00:18:09.254Z,18.60
2018-07-16T00:20:38.404Z,18.60
2018-07-16T00:23:07.573Z,18.50
2018-07-16T00:25:36.690Z,18.40
2018-07-16T00:28:05.902Z,18.50
2018-07-16T00:30:35.088Z,18.40
2018-07-16T00:33:04.257Z,18.40
2018-07-16T00:35:33.403Z,18.50
2018-07-16T00:38:02.573Z,18.40
2018-07-16T00:40:32.498Z,18.30
2018-07-16T00:43:01.677Z,18.20
2018-07-16T00:45:30.826Z,18.20
2018-07-16T00:47:59.998Z,18.30
2018-07-16T00:50:29.138Z,18.30
2018-07-16T00:52:58.328Z,18.30
2018-07-16T00:55:27.483Z,18.20
2018-07-16T00:57:56.672Z,18.10
2018-07-16T01:00:25.833Z,18.00
2018-07-16T01:02:55.012Z,18.10
2018-07-16T01:05:24.183Z,18.10
2018-07-16T01:07:53.353Z,18.00
2018-07-16T01:10:22.546Z,18.10
2018-07-16T01:12:51.853Z,18.10
2018-07-16T01:15:21.013Z,18.20
2018-07-16T01:17:50.199Z,18.20
2018-07-16T01:20:19.394Z,18.30
2018-07-16T01:22:48.576Z,18.30
2018-07-16T01:27:46.469Z,18.20
2018-07-16T01:30:15.652Z,18.20
2018-07-16T01:32:44.818Z,18.30
2018-07-16T01:35:13.958Z,18.30
2018-07-16T01:37:43.127Z,18.20
2018-07-16T01:40:12.270Z,18.10
2018-07-16T01:42:41.481Z,18.20
2018-07-16T01:45:10.621Z,18.20
2018-07-16T01:47:39.778Z,18.00
2018-07-16T01:50:08.962Z,18.10
2018-07-16T01:52:38.389Z,17.90
2018-07-16T01:55:07.877Z,18.10
2018-07-16T01:57:37.084Z,18.10
2018-07-16T02:00:06.259Z,18.00
2018-07-16T02:02:35.443Z,18.10
2018-07-16T02:05:04.605Z,18.00
2018-07-16T02:07:33.778Z,18.00
2018-07-16T02:10:02.955Z,18.00
2018-07-16T02:12:32.126Z,18.10
2018-07-16T02:15:01.304Z,18.10
2018-07-16T02:17:30.486Z,18.10
2018-07-16T02:19:59.734Z,18.00
2018-07-16T02:22:28.893Z,17.90
2018-07-16T02:24:58.082Z,17.90
2018-07-16T02:27:27.270Z,17.90
2018-07-16T02:29:56.561Z,18.00
2018-07-16T02:32:25.714Z,17.90
2018-07-16T02:34:54.882Z,17.90
2018-07-16T02:37:24.043Z,17.90
2018-07-16T02:42:21.985Z,17.90
2018-07-16T02:44:51.180Z,17.90
2018-07-16T02:47:20.353Z,17.90
2018-07-16T02:49:49.531Z,17.90
2018-07-16T02:52:18.698Z,17.80
2018-07-16T02:54:47.875Z,17.80
2018-07-16T02:57:17.029Z,17.70
2018-07-16T02:59:46.485Z,17.60
2018-07-16T03:02:15.732Z,17.50
2018-07-16T03:04:44.860Z,17.50
2018-07-16T03:07:14.066Z,17.40
2018-07-16T03:09:43.454Z,17.40
2018-07-16T03:12:12.634Z,17.40
2018-07-16T03:14:41.823Z,17.30
2018-07-16T03:17:11.009Z,17.30
2018-07-16T03:19:40.235Z,17.40
2018-07-16T03:22:09.459Z,17.30
2018-07-16T03:24:38.705Z,17.20
2018-07-16T03:27:07.862Z,17.20
2018-07-16T03:29:37.043Z,17.30
2018-07-16T03:32:06.435Z,17.20
2018-07-16T03:34:35.692Z,17.00
2018-07-16T03:37:04.854Z,17.30
2018-07-16T03:39:34.012Z,17.40
2018-07-16T03:42:03.163Z,17.40
2018-07-16T03:44:33.074Z,17.50
2018-07-16T03:47:02.215Z,17.60
2018-07-16T03:49:31.445Z,17.60
2018-07-16T03:52:02.002Z,17.70
2018-07-16T03:54:31.353Z,17.60
2018-07-16T03:57:00.539Z,17.50
2018-07-16T03:59:29.699Z,17.00
2018-07-16T04:01:58.868Z,17.10
2018-07-16T04:04:28.017Z,17.20
2018-07-16T04:06:57.282Z,17.30
2018-07-16T04:09:26.561Z,17.30
2018-07-16T04:11:55.773Z,17.30
2018-07-16T04:14:24.926Z,17.30
2018-07-16T04:16:54.132Z,17.40
2018-07-16T04:19:23.361Z,17.40
2018-07-16T04:21:52.525Z,17.40
2018-07-16T04:24:21.681Z,17.40
2018-07-16T04:26:50.870Z,17.50
2018-07-16T04:29:20.055Z,17.40
2018-07-16T04:31:49.251Z,17.50
2018-07-16T04:36:47.145Z,17.60
2018-07-16T04:39:16.302Z,17.60
2018-07-16T04:41:45.481Z,17.70
2018-07-16T04:44:14.625Z,17.70
2018-07-16T04:49:13.860Z,17.80
2018-07-16T04:51:43.025Z,17.90
2018-07-16T04:54:12.167Z,17.90
2018-07-16T04:56:41.345Z,18.00
2018-07-16T04:59:10.535Z,18.00
2018-07-16T05:01:39.741Z,18.00
2018-07-16T05:04:08.902Z,18.10
2018-07-16T05:06:38.064Z,18.10
2018-07-16T05:09:07.714Z,18.20
2018-07-16T05:14:05.695Z,18.30
2018-07-16T05:16:34.943Z,18.30
2018-07-16T05:19:04.113Z,18.30
2018-07-16T05:21:33.282Z,18.40
2018-07-16T05:24:02.497Z,18.50
2018-07-16T05:26:31.641Z,18.70
2018-07-16T05:29:00.837Z,18.70
2018-07-16T05:31:30.215Z,18.80
2018-07-16T05:33:59.211Z,18.70
2018-07-16T05:36:28.375Z,18.80
2018-07-16T05:38:57.556Z,18.80
2018-07-16T05:41:26.719Z,19.00
2018-07-16T05:43:55.900Z,19.10
2018-07-16T05:46:25.046Z,19.20
2018-07-16T05:48:54.267Z,19.20
2018-07-16T05:51:23.443Z,19.30
2018-07-16T05:53:52.614Z,19.30
2018-07-16T05:56:21.825Z,19.40
2018-07-16T05:58:51.034Z,19.30
2018-07-16T06:01:20.309Z,19.50
2018-07-16T06:03:49.484Z,19.40
2018-07-16T06:06:18.642Z,19.60
2018-07-16T06:08:47.906Z,19.60
2018-07-16T06:11:17.093Z,19.70
2018-07-16T06:13:46.255Z,19.60
2018-07-16T06:16:15.439Z,19.70
2018-07-16T06:18:44.650Z,19.80
2018-07-16T06:21:13.809Z,19.80
2018-07-16T06:23:43.029Z,19.90
2018-07-16T06:26:12.182Z,19.90
2018-07-16T06:28:41.387Z,19.90
2018-07-16T06:31:10.535Z,19.90
2018-07-16T06:33:39.710Z,19.90
2018-07-16T06:36:08.863Z,20.10
2018-07-16T06:38:38.026Z,20.10
2018-07-16T06:41:07.533Z,20.20
2018-07-16T06:43:36.461Z,20.40
2018-07-16T06:46:05.619Z,20.40
2018-07-16T06:48:34.902Z,20.60
2018-07-16T06:51:04.061Z,20.60
2018-07-16T06:53:33.262Z,20.50
2018-07-16T06:56:02.429Z,20.70
2018-07-16T06:58:31.620Z,20.70
2018-07-16T07:01:00.793Z,20.70
2018-07-16T07:03:29.930Z,20.70
2018-07-16T07:05:59.093Z,20.80
2018-07-16T07:08:28.227Z,20.80
2018-07-16T07:10:57.433Z,21.00
2018-07-16T07:13:26.617Z,21.00
2018-07-16T07:15:55.845Z,21.10
2018-07-16T07:18:25.006Z,21.30
2018-07-16T07:20:54.190Z,21.30
2018-07-16T07:23:23.359Z,21.30
2018-07-16T07:25:52.534Z,21.50
2018-07-16T07:28:21.721Z,21.60
2018-07-16T07:30:50.890Z,21.60
2018-07-16T07:33:20.022Z,21.70
2018-07-16T07:35:49.210Z,21.80
2018-07-16T07:38:18.368Z,21.80
2018-07-16T07:40:47.578Z,21.80
2018-07-16T07:43:16.733Z,21.90
2018-07-16T07:45:45.895Z,21.90
2018-07-16T07:48:15.053Z,22.20
2018-07-16T07:50:44.233Z,22.30
2018-07-16T07:53:13.384Z,22.40
2018-07-16T07:55:42.648Z,22.40
2018-07-16T07:58:11.754Z,22.40
2018-07-16T08:00:40.942Z,22.50
2018-07-16T08:03:10.129Z,22.50
2018-07-16T08:05:39.265Z,22.60
2018-07-16T08:08:08.533Z,22.60
2018-07-16T08:10:37.714Z,22.20
2018-07-16T08:13:06.913Z,22.50
2018-07-16T08:18:05.011Z,23.00
2018-07-16T08:20:34.221Z,23.20
2018-07-16T08:23:03.384Z,23.30
2018-07-16T08:25:32.657Z,23.10
2018-07-16T08:28:01.916Z,23.00
2018-07-16T08:30:31.080Z,23.40
2018-07-16T08:33:00.534Z,23.80
2018-07-16T08:35:29.713Z,23.90
2018-07-16T08:37:58.908Z,23.80
2018-07-16T08:40:28.101Z,23.60
2018-07-16T08:42:57.286Z,23.50
2018-07-16T08:45:26.480Z,23.80
2018-07-16T08:47:55.657Z,24.10
2018-07-16T08:50:24.869Z,24.00
2018-07-16T08:52:54.154Z,24.10
2018-07-16T08:55:23.321Z,24.10
2018-07-16T08:57:52.914Z,24.20
2018-07-16T09:00:22.134Z,24.50
2018-07-16T09:02:51.316Z,24.50
2018-07-16T09:05:20.526Z,24.90
2018-07-16T09:07:49.698Z,25.00
2018-07-16T09:10:18.839Z,25.10
2018-07-16T09:12:48.011Z,25.20
2018-07-16T09:15:17.190Z,25.00
2018-07-16T09:17:46.384Z,24.90
2018-07-16T09:20:15.557Z,25.20
2018-07-16T09:22:44.762Z,25.40
2018-07-16T09:25:13.911Z,25.50
2018-07-16T09:27:43.073Z,25.70
2018-07-16T09:30:12.269Z,25.60
2018-07-16T09:32:41.545Z,25.70
2018-07-16T09:35:10.742Z,25.80
2018-07-16T09:37:39.970Z,26.00
2018-07-16T09:40:08.594Z,26.10
2018-07-16T09:42:37.822Z,26.00
2018-07-16T09:45:07.018Z,26.30
2018-07-16T09:47:36.214Z,26.50
2018-07-16T09:50:05.399Z,26.50
2018-07-16T09:52:34.582Z,26.40
2018-07-16T09:55:03.800Z,26.30
2018-07-16T09:57:33.039Z,26.60
2018-07-16T10:00:02.217Z,26.60
2018-07-16T10:02:31.394Z,26.70
2018-07-16T10:05:00.545Z,26.70
2018-07-16T10:07:29.731Z,26.90
2018-07-16T10:09:58.888Z,26.90
2018-07-16T10:12:28.068Z,26.70
2018-07-16T10:14:57.227Z,26.10
2018-07-16T10:17:26.404Z,26.60
2018-07-16T10:19:55.553Z,27.00
2018-07-16T10:22:24.721Z,26.90
2018-07-16T10:24:53.869Z,27.00
2018-07-16T10:27:23.162Z,27.00
2018-07-16T10:29:52.309Z,27.10
2018-07-16T10:32:21.490Z,27.20
2018-07-16T10:34:50.638Z,27.30
2018-07-16T10:37:19.811Z,27.20
2018-07-16T10:39:48.961Z,27.40
2018-07-16T10:42:18.121Z,27.20
2018-07-16T10:44:47.373Z,27.30
2018-07-16T10:47:16.586Z,27.60
2018-07-16T10:49:45.792Z,27.60
2018-07-16T10:52:14.923Z,27.60
2018-07-16T10:54:45.666Z,27.80
2018-07-16T10:57:14.915Z,27.80
2018-07-16T11:02:12.817Z,27.70
2018-07-16T11:04:41.989Z,27.70
2018-07-16T11:07:11.161Z,27.80
2018-07-16T11:09:40.346Z,28.20
2018-07-16T11:12:09.505Z,28.30
2018-07-16T11:14:38.676Z,28.10
2018-07-16T11:17:07.834Z,28.20
2018-07-16T11:19:37.011Z,28.20
2018-07-16T11:22:06.257Z,28.40
2018-07-16T11:24:36.093Z,28.40
2018-07-16T11:27:05.581Z,28.30
2018-07-16T11:29:34.742Z,28.30
2018-07-16T11:32:04.425Z,28.70
2018-07-16T11:34:33.627Z,28.80
2018-07-16T11:37:02.886Z,28.90
2018-07-16T11:39:32.073Z,29.10
2018-07-16T11:42:01.217Z,29.00
2018-07-16T11:44:30.400Z,29.00
2018-07-16T11:46:59.613Z,29.10
2018-07-16T11:49:28.786Z,29.30
2018-07-16T11:51:57.940Z,29.00
2018-07-16T11:54:27.118Z,28.70
2018-07-16T11:56:56.371Z,28.90
2018-07-16T11:59:25.605Z,29.10
2018-07-16T12:01:54.735Z,28.90
2018-07-16T12:04:23.893Z,28.90
2018-07-16T12:06:53.035Z,28.90
2018-07-16T12:09:22.208Z,29.20
2018-07-16T12:11:51.354Z,29.30
2018-07-16T12:14:20.530Z,29.40
2018-07-16T12:16:49.745Z,29.40
2018-07-16T12:19:18.917Z,29.60
2018-07-16T12:21:48.119Z,29.70
2018-07-16T12:24:17.292Z,29.50
2018-07-16T12:26:46.442Z,29.50
2018-07-16T12:29:15.633Z,29.70
2018-07-16T12:31:44.766Z,29.70
2018-07-16T12:34:13.937Z,29.70
2018-07-16T12:36:43.126Z,29.40
2018-07-16T12:39:12.294Z,29.70
2018-07-16T12:41:41.492Z,30.00
2018-07-16T12:44:10.642Z,29.90
2018-07-16T12:46:39.821Z,29.80
2018-07-16T12:49:09.000Z,29.80
2018-07-16T12:51:38.149Z,30.00
2018-07-16T12:54:07.575Z,30.00
2018-07-16T12:56:36.795Z,29.90
2018-07-16T12:59:06.002Z,30.00
2018-07-16T13:01:35.159Z,30.10
2018-07-16T13:04:04.306Z,30.10
2018-07-16T13:06:33.466Z,30.00
2018-07-16T13:09:02.682Z,30.00
2018-07-16T13:11:31.863Z,30.00
2018-07-16T13:14:00.985Z,30.10
2018-07-16T13:16:30.198Z,30.00
2018-07-16T13:18:59.354Z,30.00
2018-07-16T13:21:28.533Z,30.20
2018-07-16T13:23:57.717Z,30.20
2018-07-16T13:26:26.882Z,30.30
2018-07-16T13:28:56.049Z,30.10
2018-07-16T13:31:25.246Z,30.10
2018-07-16T13:33:54.409Z,30.00
2018-07-16T13:36:23.615Z,29.70
2018-07-16T13:38:52.801Z,28.80
2018-07-16T13:41:22.027Z,29.10
2018-07-16T13:43:51.212Z,29.10
2018-07-16T13:46:20.448Z,29.10
2018-07-16T13:48:49.541Z,29.20
2018-07-16T13:51:18.711Z,29.10
2018-07-16T13:53:47.856Z,29.40
2018-07-16T13:56:17.053Z,29.80
2018-07-16T13:58:46.257Z,29.20
2018-07-16T14:01:15.451Z,29.10
2018-07-16T14:03:44.615Z,29.30
2018-07-16T14:06:13.780Z,29.10
2018-07-16T14:08:42.925Z,28.80
2018-07-16T14:11:12.083Z,29.10
2018-07-16T14:13:41.240Z,29.40
2018-07-16T14:16:10.773Z,29.40
2018-07-16T14:18:39.914Z,29.10
2018-07-16T14:21:09.182Z,29.10
2018-07-16T14:23:38.355Z,28.70
2018-07-16T14:26:07.597Z,28.50
2018-07-16T14:28:36.763Z,28.40
2018-07-16T14:31:06.034Z,28.20
2018-07-16T14:33:35.126Z,28.30
2018-07-16T14:36:04.294Z,28.40
2018-07-16T14:38:33.483Z,28.50
2018-07-16T14:41:02.650Z,28.60
2018-07-16T14:43:31.874Z,28.50
2018-07-16T14:48:58.040Z,28.70
2018-07-16T14:51:27.143Z,28.50
2018-07-16T14:53:56.198Z,28.80
2018-07-16T14:58:54.007Z,29.00
2018-07-16T15:01:23.121Z,28.80
2018-07-16T15:03:52.217Z,29.00
2018-07-16T15:06:21.338Z,29.20
2018-07-16T15:08:50.407Z,28.60
2018-07-16T15:11:19.497Z,28.30
2018-07-16T15:13:48.573Z,28.20
2018-07-16T15:16:17.638Z,28.10
2018-07-16T15:18:46.722Z,28.40
2018-07-16T15:21:16.124Z,28.40
2018-07-16T15:23:44.908Z,28.30
2018-07-16T15:26:14.022Z,28.70
2018-07-16T15:28:48.743Z,28.90
2018-07-16T15:31:17.828Z,28.50
2018-07-16T15:33:46.983Z,28.40
2018-07-16T15:36:16.051Z,28.40
2018-07-16T15:38:45.132Z,28.20
2018-07-16T15:41:14.753Z,28.30
2018-07-16T15:43:44.257Z,28.20
2018-07-16T15:46:13.346Z,28.00
2018-07-16T15:48:42.533Z,28.20
2018-07-16T15:51:11.593Z,28.30
2018-07-16T15:53:40.749Z,28.40
2018-07-16T15:56:09.833Z,27.90
2018-07-16T15:58:38.947Z,27.90
2018-07-16T16:01:08.035Z,28.10
2018-07-16T16:03:37.115Z,28.20
2018-07-16T16:06:06.244Z,28.10
2018-07-16T16:08:35.321Z,28.00
2018-07-16T16:11:04.419Z,27.80
2018-07-16T16:13:33.542Z,27.30
2018-07-16T16:16:02.633Z,27.40
2018-07-16T16:18:31.744Z,27.40
2018-07-16T16:21:00.846Z,27.40
2018-07-16T16:23:29.977Z,27.40
2018-07-16T16:25:59.283Z,27.40
2018-07-16T16:28:28.883Z,27.60
2018-07-16T16:30:58.049Z,27.70
2018-07-16T16:33:27.506Z,27.60
2018-07-16T16:35:57.081Z,27.40
2018-07-16T16:38:26.319Z,27.30
2018-07-16T16:40:55.570Z,27.40
2018-07-16T16:43:24.764Z,27.60
2018-07-16T16:45:54.004Z,27.70
2018-07-16T16:48:23.106Z,27.60
2018-07-16T16:50:52.799Z,27.60
2018-07-16T16:53:23.046Z,27.60
2018-07-16T16:55:52.650Z,27.60
2018-07-16T16:58:23.014Z,27.60
2018-07-16T17:00:52.902Z,27.40
2018-07-16T17:03:22.472Z,27.40
2018-07-16T17:05:51.987Z,27.40
2018-07-16T17:08:21.595Z,27.40
2018-07-16T17:10:51.506Z,27.30
2018-07-16T17:13:21.491Z,27.20
2018-07-16T17:15:52.421Z,27.10
2018-07-16T17:18:21.730Z,27.10
2018-07-16T17:20:50.816Z,27.00
2018-07-16T17:23:19.965Z,27.00
2018-07-16T17:25:49.219Z,26.80
2018-07-16T17:28:18.299Z,26.70
2018-07-16T17:30:47.435Z,26.60
2018-07-16T17:33:16.542Z,26.70
2018-07-16T17:35:45.707Z,26.50
2018-07-16T17:38:14.938Z,26.40
2018-07-16T17:40:44.022Z,26.40
2018-07-16T17:43:13.103Z,26.40
2018-07-16T17:45:42.241Z,26.40
2018-07-16T17:48:11.316Z,26.20
2018-07-16T17:50:40.420Z,26.10
2018-07-16T17:53:09.508Z,26.10
2018-07-16T17:55:38.588Z,26.00
2018-07-16T17:58:07.700Z,25.90
2018-07-16T18:00:36.828Z,25.90
2018-07-16T18:03:05.958Z,25.80
2018-07-16T18:05:35.327Z,25.70
2018-07-16T18:08:04.424Z,25.60
2018-07-16T18:10:33.524Z,25.60
2018-07-16T18:13:02.997Z,25.50
2018-07-16T18:15:32.295Z,25.50
2018-07-16T18:18:01.377Z,25.50
2018-07-16T18:20:30.715Z,25.40
2018-07-16T18:22:59.844Z,25.30
2018-07-16T18:25:31.410Z,25.20
2018-07-16T18:28:00.687Z,25.20
2018-07-16T18:30:29.774Z,25.20
2018-07-16T18:32:59.000Z,25.10
2018-07-16T18:35:28.102Z,25.00
2018-07-16T18:37:57.189Z,25.00
2018-07-16T18:40:26.330Z,24.90
2018-07-16T18:42:55.411Z,24.90
2018-07-16T18:45:24.536Z,24.80
2018-07-16T18:47:53.730Z,24.70
2018-07-16T18:50:22.837Z,24.60
2018-07-16T18:52:51.898Z,24.40
2018-07-16T18:55:21.130Z,24.20
2018-07-16T18:57:50.256Z,23.80
2018-07-16T19:00:19.577Z,23.60
2018-07-16T19:02:48.670Z,23.50
2018-07-16T19:05:17.878Z,23.40
2018-07-16T19:07:47.068Z,23.40
2018-07-16T19:10:16.170Z,23.40
2018-07-16T19:12:45.280Z,23.20
2018-07-16T19:15:27.522Z,23.10
2018-07-16T19:20:27.581Z,22.80
2018-07-16T19:22:56.742Z,22.80
2018-07-16T19:25:25.986Z,22.90
2018-07-16T19:27:55.102Z,22.80
2018-07-16T19:30:24.311Z,22.60
2018-07-16T19:32:53.491Z,22.60
2018-07-16T19:35:29.137Z,22.30
2018-07-16T19:37:58.185Z,22.10
2018-07-16T19:40:27.303Z,22.10
2018-07-16T19:42:56.444Z,22.00
2018-07-16T19:45:25.579Z,21.90
2018-07-16T19:47:54.687Z,21.60
2018-07-16T19:50:23.810Z,21.60
2018-07-16T19:52:52.972Z,21.70
2018-07-16T19:55:22.131Z,21.60
2018-07-16T19:57:51.311Z,21.40
2018-07-16T20:00:20.598Z,21.30
2018-07-16T20:02:49.853Z,21.30
2018-07-16T20:05:18.922Z,21.20
2018-07-16T20:07:48.023Z,21.10
2018-07-16T20:10:17.127Z,21.10
2018-07-16T20:12:46.235Z,21.20
2018-07-16T20:15:17.820Z,20.90
2018-07-16T20:17:46.951Z,21.00
2018-07-16T20:20:16.245Z,20.80
2018-07-16T20:22:45.312Z,20.80
2018-07-16T20:25:14.436Z,20.90
2018-07-16T20:27:43.547Z,20.90
2018-07-16T20:30:12.703Z,20.90
2018-07-16T20:32:41.836Z,20.90
2018-07-16T20:35:11.014Z,20.80
2018-07-16T20:37:40.163Z,20.80
2018-07-16T20:40:09.308Z,20.70
2018-07-16T20:42:38.404Z,20.50
2018-07-16T20:45:07.543Z,20.40
2018-07-16T20:47:36.656Z,20.50
2018-07-16T20:50:05.785Z,20.50
2018-07-16T20:52:34.956Z,20.60
2018-07-16T20:55:04.114Z,20.40
2018-07-16T20:57:33.230Z,20.20
2018-07-16T21:00:02.337Z,20.00
2018-07-16T21:02:31.434Z,20.00
2018-07-16T21:05:00.542Z,20.10
2018-07-16T21:07:29.603Z,20.10
2018-07-16T21:09:58.751Z,20.00
2018-07-16T21:12:27.873Z,20.00
2018-07-16T21:14:57.027Z,19.80
2018-07-16T21:17:26.140Z,19.90
2018-07-16T21:19:55.270Z,20.00
2018-07-16T21:22:24.383Z,19.90
2018-07-16T21:24:53.528Z,19.90
2018-07-16T21:27:22.602Z,19.90
2018-07-16T21:29:51.716Z,19.80
2018-07-16T21:32:20.837Z,19.80
2018-07-16T21:34:49.955Z,19.60
2018-07-16T21:37:19.040Z,19.60
2018-07-16T21:39:48.143Z,19.60
2018-07-16T21:42:17.238Z,19.50
2018-07-16T21:44:46.350Z,19.30
2018-07-16T21:49:44.154Z,19.20
2018-07-16T21:52:13.327Z,19.20
2018-07-16T21:54:42.511Z,19.20
2018-07-16T21:57:11.614Z,19.10
2018-07-16T21:59:40.728Z,19.20
2018-07-16T22:02:09.892Z,19.10
2018-07-16T22:04:39.039Z,18.80
2018-07-16T22:07:08.290Z,18.70
2018-07-16T22:09:37.413Z,18.90
2018-07-16T22:12:06.586Z,18.90
2018-07-16T22:14:35.684Z,18.70
2018-07-16T22:19:33.523Z,18.80
2018-07-16T22:22:02.699Z,18.60
2018-07-16T22:24:31.794Z,18.70
2018-07-16T22:27:00.915Z,18.70
2018-07-16T22:29:30.042Z,18.60
2018-07-16T22:31:59.164Z,18.60
2018-07-16T22:34:28.310Z,18.40
2018-07-16T22:36:57.460Z,18.40
2018-07-16T22:39:26.632Z,18.40
2018-07-16T22:41:55.734Z,18.50
2018-07-16T22:44:24.880Z,18.50
2018-07-16T22:46:53.947Z,18.50
2018-07-16T22:49:23.096Z,18.40
2018-07-16T22:51:52.195Z,18.50
2018-07-16T22:54:21.314Z,18.30
2018-07-16T22:56:50.424Z,18.10
2018-07-16T22:59:19.690Z,18.20
2018-07-16T23:01:48.802Z,18.30
2018-07-16T23:04:17.907Z,18.50
2018-07-16T23:06:47.008Z,18.30
2018-07-16T23:09:16.103Z,18.40
2018-07-16T23:11:45.227Z,18.40
2018-07-16T23:14:14.708Z,18.40
2018-07-16T23:16:43.860Z,18.00
2018-07-16T23:19:12.922Z,17.60
2018-07-16T23:21:42.037Z,17.50
2018-07-16T23:24:11.111Z,17.70
2018-07-16T23:26:40.282Z,17.90
2018-07-16T23:29:09.406Z,17.90
2018-07-16T23:31:38.440Z,17.90
2018-07-16T23:34:07.518Z,18.00
2018-07-16T23:36:36.719Z,18.00
2018-07-16T23:39:08.059Z,17.80
2018-07-16T23:41:37.150Z,17.70
2018-07-16T23:44:06.247Z,17.60
2018-07-16T23:46:35.342Z,17.60
2018-07-16T23:49:04.430Z,17.60
2018-07-16T23:51:33.541Z,17.50
2018-07-16T23:54:02.700Z,17.50
2018-07-16T23:56:31.827Z,17.60
2018-07-16T23:59:00.973Z,17.60
